createdAt,value
2022-08-18T00:00:15.000Z,65.10
2022-08-18T00:01:15.000Z,65.30
2022-08-18T00:02:15.000Z,65.53
2022-08-18T00:03:15.000Z,67.43
2022-08-18T00:04:15.000Z,69.23
2022-08-18T00:05:15.000Z,69.59
2022-08-18T00:06:15.000Z,69.82
2022-08-18T00:07:15.000Z,70.03
2022-08-18T00:08:15.000Z,70.03
2022-08-18T00:09:15.000Z,70.03
2022-08-18T00:10:15.000Z,70.03
2022-08-18T00:11:15.000Z,69.43
2022-08-18T00:12:15.000Z,67.93
2022-08-18T00:13:15.000Z,66.83
2022-08-18T00:14:15.000Z,65.96
2022-08-18T00:15:15.000Z,65.26
2022-08-18T00:16:15.000Z,65.06
2022-08-18T00:17:15.000Z,64.56
2022-08-18T00:18:15.000Z,64.46
2022-08-18T00:19:15.000Z,64.26
2022-08-18T00:20:15.000Z,64.16
2022-08-18T00:21:15.000Z,63.96
2022-08-18T00:22:14.000Z,63.96
2022-08-18T00:23:14.000Z,63.36
2022-08-18T00:24:14.000Z,64.36
2022-08-18T00:25:14.000Z,64.96
2022-08-18T00:26:14.000Z,64.06
2022-08-18T00:27:14.000Z,63.06
2022-08-18T00:28:14.000Z,62.46
2022-08-18T00:29:14.000Z,62.37
2022-08-18T00:30:14.000Z,62.26
2022-08-18T00:31:14.000Z,62.46
2022-08-18T00:32:14.000Z,62.46
2022-08-18T00:33:14.000Z,62.66
2022-08-18T00:34:14.000Z,62.66
2022-08-18T00:35:14.000Z,62.56
2022-08-18T00:36:14.000Z,62.76
2022-08-18T00:37:14.000Z,62.86
2022-08-18T00:38:14.000Z,62.86
2022-08-18T00:39:14.000Z,63.06
2022-08-18T00:40:14.000Z,62.96
2022-08-18T00:41:14.000Z,62.66
2022-08-18T00:42:14.000Z,64.06
2022-08-18T00:43:14.000Z,66.63
2022-08-18T00:44:14.000Z,67.63
2022-08-18T00:45:14.000Z,66.93
2022-08-18T00:46:14.000Z,66.53
2022-08-18T00:47:14.000Z,66.23
2022-08-18T00:48:14.000Z,65.63
2022-08-18T00:49:14.000Z,65.26
2022-08-18T00:50:14.000Z,65.16
2022-08-18T00:51:14.000Z,65.46
2022-08-18T00:52:14.000Z,64.36
2022-08-18T00:53:14.000Z,63.86
2022-08-18T00:54:14.000Z,64.06
2022-08-18T00:55:14.000Z,66.26
2022-08-18T00:56:14.000Z,66.36
2022-08-18T00:57:14.000Z,66.26
2022-08-18T00:58:14.000Z,65.26
2022-08-18T00:59:14.000Z,64.56
2022-08-18T01:00:14.000Z,63.76
2022-08-18T01:01:14.000Z,63.66
2022-08-18T01:02:14.000Z,64.06
2022-08-18T01:03:14.000Z,64.36
2022-08-18T01:04:14.000Z,64.56
2022-08-18T01:05:14.000Z,64.36
2022-08-18T01:06:14.000Z,64.09
2022-08-18T01:07:14.000Z,64.09
2022-08-18T01:08:14.000Z,64.09
2022-08-18T01:09:14.000Z,64.09
2022-08-18T01:10:14.000Z,63.69
2022-08-18T01:10:14.000Z,63.69
2022-08-18T01:11:14.000Z,63.79
2022-08-18T01:11:14.000Z,63.79
2022-08-18T01:12:14.000Z,64.29
2022-08-18T01:12:14.000Z,64.29
2022-08-18T01:13:14.000Z,64.19
2022-08-18T01:13:14.000Z,64.19
2022-08-18T01:14:14.000Z,63.89
2022-08-18T01:14:14.000Z,63.89
2022-08-18T01:15:14.000Z,65.09
2022-08-18T01:16:14.000Z,67.29
2022-08-18T01:17:14.000Z,69.99
2022-08-18T01:18:14.000Z,71.09
2022-08-18T01:19:14.000Z,71.29
2022-08-18T01:20:14.000Z,71.69
2022-08-18T01:21:14.000Z,72.29
2022-08-18T01:22:14.000Z,72.39
2022-08-18T01:23:14.000Z,72.23
2022-08-18T01:24:14.000Z,72.53
2022-08-18T01:25:14.000Z,72.53
2022-08-18T01:26:14.000Z,72.33
2022-08-18T01:27:14.000Z,71.12
2022-08-18T01:28:14.000Z,70.62
2022-08-18T01:29:14.000Z,70.32
2022-08-18T01:30:14.000Z,70.46
2022-08-18T01:31:14.000Z,70.76
2022-08-18T01:32:14.000Z,70.86
2022-08-18T01:33:14.000Z,70.96
2022-08-18T01:34:14.000Z,71.06
2022-08-18T01:35:14.000Z,70.96
2022-08-18T01:35:14.000Z,70.96
2022-08-18T01:36:14.000Z,71.06
2022-08-18T01:36:14.000Z,71.06
2022-08-18T01:37:14.000Z,70.86
2022-08-18T01:37:14.000Z,70.86
2022-08-18T01:38:14.000Z,70.86
2022-08-18T01:38:14.000Z,70.86
2022-08-18T01:39:14.000Z,72.56
2022-08-18T01:39:14.000Z,72.56
2022-08-18T01:40:14.000Z,72.56
2022-08-18T01:41:14.000Z,72.66
2022-08-18T01:42:14.000Z,72.36
2022-08-18T01:43:14.000Z,71.56
2022-08-18T01:44:14.000Z,70.96
2022-08-18T01:45:14.000Z,70.89
2022-08-18T01:46:14.000Z,70.79
2022-08-18T01:47:14.000Z,70.79
2022-08-18T01:48:14.000Z,70.69
2022-08-18T01:49:14.000Z,69.49
2022-08-18T01:50:13.000Z,68.29
2022-08-18T01:51:13.000Z,67.79
2022-08-18T01:52:13.000Z,67.69
2022-08-18T01:53:13.000Z,67.99
2022-08-18T01:54:13.000Z,68.19
2022-08-18T01:55:13.000Z,68.29
2022-08-18T01:56:13.000Z,68.39
2022-08-18T01:57:13.000Z,68.29
2022-08-18T01:58:13.000Z,68.29
2022-08-18T01:59:13.000Z,68.49
2022-08-18T02:00:13.000Z,68.69
2022-08-18T02:01:13.000Z,68.79
2022-08-18T02:02:13.000Z,68.89
2022-08-18T02:03:13.000Z,68.89
2022-08-18T02:04:13.000Z,69.09
2022-08-18T02:05:13.000Z,69.23
2022-08-18T02:06:13.000Z,69.29
2022-08-18T02:07:13.000Z,69.49
2022-08-18T02:08:13.000Z,69.82
2022-08-18T02:09:13.000Z,69.69
2022-08-18T02:10:13.000Z,69.62
2022-08-18T02:11:13.000Z,69.82
2022-08-18T02:12:13.000Z,70.03
2022-08-18T02:13:13.000Z,70.32
2022-08-18T02:14:13.000Z,70.69
2022-08-18T02:15:13.000Z,71.30
2022-08-18T02:16:13.000Z,72.09
2022-08-18T02:17:13.000Z,72.60
2022-08-18T02:18:13.000Z,72.80
2022-08-18T02:19:13.000Z,72.80
2022-08-18T02:20:13.000Z,73.19
2022-08-18T02:21:13.000Z,74.30
2022-08-18T02:22:13.000Z,75.10
2022-08-18T02:23:13.000Z,75.50
2022-08-18T02:24:13.000Z,76.40
2022-08-18T02:25:13.000Z,76.04
2022-08-18T02:26:13.000Z,76.43
2022-08-18T02:27:13.000Z,76.24
2022-08-18T02:28:13.000Z,76.34
2022-08-18T02:29:13.000Z,76.43
2022-08-18T02:30:13.000Z,76.34
2022-08-18T02:31:13.000Z,76.54
2022-08-18T02:32:13.000Z,76.74
2022-08-18T02:33:13.000Z,76.94
2022-08-18T02:34:13.000Z,77.14
2022-08-18T02:35:13.000Z,77.14
2022-08-18T02:36:13.000Z,77.34
2022-08-18T02:37:13.000Z,77.14
2022-08-18T02:38:13.000Z,76.54
2022-08-18T02:39:13.000Z,76.24
2022-08-18T02:40:13.000Z,76.43
2022-08-18T02:41:13.000Z,76.54
2022-08-18T02:42:13.000Z,76.54
2022-08-18T02:43:13.000Z,76.64
2022-08-18T02:44:13.000Z,76.94
2022-08-18T02:45:13.000Z,77.64
2022-08-18T02:46:13.000Z,77.64
2022-08-18T02:47:13.000Z,77.74
2022-08-18T02:48:13.000Z,77.74
2022-08-18T02:49:13.000Z,77.84
2022-08-18T02:50:13.000Z,77.94
2022-08-18T02:51:13.000Z,78.04
2022-08-18T02:52:13.000Z,77.94
2022-08-18T02:53:13.000Z,77.84
2022-08-18T02:54:13.000Z,77.74
2022-08-18T02:55:13.000Z,77.84
2022-08-18T02:56:13.000Z,77.84
2022-08-18T02:57:13.000Z,77.84
2022-08-18T02:58:13.000Z,77.84
2022-08-18T02:59:13.000Z,78.08
2022-08-18T03:00:13.000Z,78.28
2022-08-18T03:01:13.000Z,78.48
2022-08-18T03:02:13.000Z,78.58
2022-08-18T03:03:13.000Z,78.78
2022-08-18T03:04:13.000Z,78.98
2022-08-18T03:11:30.000Z,79.78
2022-08-18T03:11:30.000Z,79.62
2022-08-18T03:12:30.000Z,79.42
2022-08-18T03:13:30.000Z,79.32
2022-08-18T03:14:30.000Z,79.32
2022-08-18T03:15:30.000Z,79.32
2022-08-18T03:16:30.000Z,79.52
2022-08-18T03:17:30.000Z,79.72
2022-08-18T03:18:30.000Z,79.52
2022-08-18T03:19:30.000Z,79.12
2022-08-18T03:20:30.000Z,78.92
2022-08-18T03:21:30.000Z,78.81
2022-08-18T03:22:30.000Z,78.81
2022-08-18T03:23:30.000Z,78.81
2022-08-18T03:24:30.000Z,78.92
2022-08-18T03:25:30.000Z,78.72
2022-08-18T03:26:30.000Z,78.52
2022-08-18T03:27:30.000Z,78.61
2022-08-18T03:28:30.000Z,78.61
2022-08-18T03:29:30.000Z,78.61
2022-08-18T03:30:30.000Z,78.92
2022-08-18T03:31:30.000Z,78.81
2022-08-18T03:32:30.000Z,79.02
2022-08-18T03:33:30.000Z,79.12
2022-08-18T03:34:30.000Z,79.02
2022-08-18T03:35:30.000Z,78.72
2022-08-18T03:36:30.000Z,78.22
2022-08-18T03:37:30.000Z,78.31
2022-08-18T03:38:30.000Z,78.52
2022-08-18T03:39:30.000Z,78.42
2022-08-18T03:40:30.000Z,78.42
2022-08-18T03:41:30.000Z,78.52
2022-08-18T03:42:30.000Z,78.52
2022-08-18T03:43:30.000Z,78.31
2022-08-18T03:44:30.000Z,77.91
2022-08-18T03:45:30.000Z,77.81
2022-08-18T03:46:30.000Z,77.21
2022-08-18T03:47:30.000Z,77.41
2022-08-18T03:48:30.000Z,77.72
2022-08-18T03:49:30.000Z,78.02
2022-08-18T03:50:30.000Z,78.31
2022-08-18T03:51:30.000Z,78.52
2022-08-18T03:52:30.000Z,78.72
2022-08-18T03:53:30.000Z,78.61
2022-08-18T03:54:30.000Z,78.31
2022-08-18T03:55:30.000Z,77.91
2022-08-18T03:56:30.000Z,77.81
2022-08-18T03:57:30.000Z,77.91
2022-08-18T03:58:30.000Z,78.02
2022-08-18T03:59:30.000Z,77.41
2022-08-18T04:00:29.000Z,77.21
2022-08-18T04:01:29.000Z,77.41
2022-08-18T04:02:29.000Z,77.51
2022-08-18T04:03:29.000Z,78.11
2022-08-18T04:04:29.000Z,78.61
2022-08-18T04:05:29.000Z,78.81
2022-08-18T04:06:29.000Z,79.02
2022-08-18T04:07:29.000Z,79.22
2022-08-18T04:08:29.000Z,79.42
2022-08-18T04:09:29.000Z,79.42
2022-08-18T04:10:29.000Z,79.32
2022-08-18T04:11:29.000Z,79.12
2022-08-18T04:12:29.000Z,78.72
2022-08-18T04:13:29.000Z,78.72
2022-08-18T04:14:29.000Z,79.02
2022-08-18T04:15:29.000Z,78.72
2022-08-18T04:16:29.000Z,78.72
2022-08-18T04:17:29.000Z,78.92
2022-08-18T04:18:29.000Z,79.02
2022-08-18T04:19:29.000Z,78.72
2022-08-18T04:21:46.000Z,78.52
2022-08-18T04:21:46.000Z,78.72
2022-08-18T04:22:45.000Z,78.81
2022-08-18T04:23:45.000Z,79.02
2022-08-18T04:24:45.000Z,79.62
2022-08-18T04:25:45.000Z,79.92
2022-08-18T04:26:45.000Z,80.02
2022-08-18T04:27:45.000Z,80.12
2022-08-18T04:28:45.000Z,80.12
2022-08-18T04:29:45.000Z,80.22
2022-08-18T04:30:45.000Z,80.62
2022-08-18T04:31:45.000Z,80.72
2022-08-18T04:32:45.000Z,80.62
2022-08-18T04:33:45.000Z,81.02
2022-08-18T04:34:45.000Z,80.92
2022-08-18T04:35:45.000Z,81.12
2022-08-18T04:36:45.000Z,81.12
2022-08-18T04:37:45.000Z,80.72
2022-08-18T04:38:45.000Z,80.62
2022-08-18T04:39:45.000Z,80.32
2022-08-18T04:40:45.000Z,80.12
2022-08-18T04:41:45.000Z,80.12
2022-08-18T04:42:45.000Z,80.12
2022-08-18T04:43:45.000Z,79.92
2022-08-18T04:44:45.000Z,79.82
2022-08-18T04:45:45.000Z,79.12
2022-08-18T04:46:45.000Z,78.61
2022-08-18T04:47:45.000Z,77.51
2022-08-18T04:48:45.000Z,78.11
2022-08-18T04:49:45.000Z,78.92
2022-08-18T04:50:45.000Z,79.32
2022-08-18T04:51:45.000Z,79.42
2022-08-18T04:52:45.000Z,79.38
2022-08-18T04:53:45.000Z,78.72
2022-08-18T04:54:45.000Z,78.08
2022-08-18T04:55:45.000Z,77.48
2022-08-18T04:56:45.000Z,76.47
2022-08-18T04:57:45.000Z,75.57
2022-08-18T04:58:45.000Z,75.47
2022-08-18T04:59:45.000Z,75.57
2022-08-18T05:17:37.000Z,77.26
2022-08-18T05:17:37.000Z,77.26
2022-08-18T05:18:37.000Z,77.17
2022-08-18T05:19:37.000Z,76.63
2022-08-18T05:20:37.000Z,76.63
2022-08-18T05:21:37.000Z,76.73
2022-08-18T05:22:37.000Z,73.59
2022-08-18T05:23:37.000Z,73.19
2022-08-18T05:24:37.000Z,71.99
2022-08-18T05:25:37.000Z,72.49
2022-08-18T05:26:37.000Z,73.19
2022-08-18T05:27:37.000Z,73.56
2022-08-18T05:28:37.000Z,73.66
2022-08-18T05:29:37.000Z,70.92
2022-08-18T05:30:37.000Z,71.72
2022-08-18T05:31:37.000Z,70.72
2022-08-18T05:32:37.000Z,69.89
2022-08-18T05:33:37.000Z,70.19
2022-08-18T05:34:37.000Z,68.10
2022-08-18T05:35:36.000Z,69.29
2022-08-18T05:36:36.000Z,69.06
2022-08-18T05:37:36.000Z,66.96
2022-08-18T05:38:36.000Z,66.77
2022-08-18T05:39:36.000Z,67.57
2022-08-18T05:40:36.000Z,66.27
2022-08-18T05:41:36.000Z,66.63
2022-08-18T05:42:36.000Z,66.63
2022-08-18T05:43:36.000Z,66.03
2022-08-18T05:44:36.000Z,65.94
2022-08-18T05:45:36.000Z,66.10
2022-08-18T05:46:36.000Z,66.10
2022-08-18T05:47:36.000Z,66.00
2022-08-18T05:48:36.000Z,65.97
2022-08-18T05:49:36.000Z,65.77
2022-08-18T05:50:36.000Z,64.97
2022-08-18T05:51:36.000Z,65.14
2022-08-18T05:52:36.000Z,64.75
2022-08-18T05:53:36.000Z,64.84
2022-08-18T05:54:36.000Z,63.72
2022-08-18T05:55:36.000Z,63.32
2022-08-18T05:56:36.000Z,64.51
2022-08-18T05:57:36.000Z,64.58
2022-08-18T05:58:36.000Z,64.09
2022-08-18T05:59:36.000Z,65.18
2022-08-18T06:00:36.000Z,63.79
2022-08-18T06:01:36.000Z,63.85
2022-08-18T06:02:36.000Z,63.95
2022-08-18T06:03:36.000Z,64.15
2022-08-18T06:04:36.000Z,64.65
2022-08-18T06:05:36.000Z,62.46
2022-08-18T06:06:36.000Z,63.13
2022-08-18T06:07:36.000Z,62.63
2022-08-18T06:08:36.000Z,64.22
2022-08-18T06:09:36.000Z,63.92
2022-08-18T06:10:36.000Z,63.13
2022-08-18T06:11:36.000Z,62.70
2022-08-18T06:12:36.000Z,63.00
2022-08-18T06:13:36.000Z,62.30
2022-08-18T06:14:36.000Z,62.37
2022-08-18T06:15:36.000Z,62.87
2022-08-18T06:16:36.000Z,61.68
2022-08-18T06:17:36.000Z,62.47
2022-08-18T06:18:36.000Z,61.58
2022-08-18T06:19:36.000Z,61.68
2022-08-18T06:20:36.000Z,61.45
2022-08-18T06:21:36.000Z,61.45
2022-08-18T06:22:36.000Z,62.02
2022-08-18T06:23:36.000Z,61.12
2022-08-18T06:24:36.000Z,61.72
2022-08-18T06:25:36.000Z,60.70
2022-08-18T06:26:36.000Z,60.89
2022-08-18T06:27:36.000Z,61.19
2022-08-18T06:28:36.000Z,60.50
2022-08-18T06:29:36.000Z,60.10
2022-08-18T06:30:36.000Z,59.61
2022-08-18T06:31:36.000Z,60.00
2022-08-18T06:32:36.000Z,60.07
2022-08-18T06:33:36.000Z,60.07
2022-08-18T06:34:36.000Z,60.77
2022-08-18T06:35:36.000Z,60.86
2022-08-18T06:36:36.000Z,60.05
2022-08-18T06:37:36.000Z,59.75
2022-08-18T06:38:36.000Z,60.14
2022-08-18T06:39:36.000Z,60.05
2022-08-18T06:40:36.000Z,60.05
2022-08-18T06:41:36.000Z,58.86
2022-08-18T06:42:36.000Z,58.92
2022-08-18T06:43:36.000Z,59.92
2022-08-18T06:44:36.000Z,58.92
2022-08-18T06:45:36.000Z,59.12
2022-08-18T06:46:36.000Z,59.42
2022-08-18T06:47:36.000Z,60.02
2022-08-18T06:48:36.000Z,59.12
2022-08-18T06:49:36.000Z,59.32
2022-08-18T06:50:36.000Z,58.83
2022-08-18T06:51:36.000Z,59.42
2022-08-18T06:52:36.000Z,58.63
2022-08-18T06:53:36.000Z,59.92
2022-08-18T06:54:36.000Z,59.62
2022-08-18T06:55:36.000Z,58.92
2022-08-18T06:56:36.000Z,59.32
2022-08-18T06:57:36.000Z,59.62
2022-08-18T06:58:36.000Z,59.35
2022-08-18T06:59:36.000Z,59.35
2022-08-18T07:00:36.000Z,59.75
2022-08-18T07:01:36.000Z,60.14
2022-08-18T07:02:36.000Z,60.83
2022-08-18T07:03:36.000Z,60.57
2022-08-18T07:04:36.000Z,60.67
2022-08-18T07:05:36.000Z,59.88
2022-08-18T07:06:36.000Z,60.07
2022-08-18T07:07:35.000Z,60.57
2022-08-18T07:08:35.000Z,61.39
2022-08-18T07:09:35.000Z,60.99
2022-08-18T07:10:35.000Z,61.49
2022-08-18T07:11:35.000Z,62.08
2022-08-18T07:11:35.000Z,62.08
2022-08-18T07:12:35.000Z,61.89
2022-08-18T07:12:35.000Z,61.89
2022-08-18T07:13:35.000Z,62.02
2022-08-18T07:13:35.000Z,62.02
2022-08-18T07:14:35.000Z,62.02
2022-08-18T07:14:35.000Z,62.02
2022-08-18T07:15:35.000Z,62.41
2022-08-18T07:15:35.000Z,62.41
2022-08-18T07:16:35.000Z,62.51
2022-08-18T07:17:35.000Z,62.41
2022-08-18T07:18:35.000Z,62.21
2022-08-18T07:19:35.000Z,62.84
2022-08-18T07:20:35.000Z,63.24
2022-08-18T07:21:35.000Z,62.84
2022-08-18T07:22:35.000Z,63.04
2022-08-18T07:23:35.000Z,63.73
2022-08-18T07:24:35.000Z,63.43
2022-08-18T07:25:35.000Z,63.73
2022-08-18T07:26:35.000Z,62.74
2022-08-18T07:27:35.000Z,63.76
2022-08-18T07:28:35.000Z,63.93
2022-08-18T07:29:35.000Z,64.46
2022-08-18T07:30:35.000Z,64.36
2022-08-18T07:31:35.000Z,63.86
2022-08-18T07:32:35.000Z,63.67
2022-08-18T07:33:35.000Z,63.96
2022-08-18T07:34:35.000Z,64.16
2022-08-18T07:35:35.000Z,64.46
2022-08-18T07:36:35.000Z,63.57
2022-08-18T07:37:35.000Z,63.86
2022-08-18T07:38:35.000Z,63.67
2022-08-18T07:39:35.000Z,63.96
2022-08-18T07:40:35.000Z,64.16
2022-08-18T07:41:35.000Z,64.59
2022-08-18T07:42:35.000Z,64.98
2022-08-18T07:43:35.000Z,65.68
2022-08-18T07:44:35.000Z,66.08
2022-08-18T07:45:35.000Z,65.68
2022-08-18T07:46:35.000Z,65.48
2022-08-18T07:47:35.000Z,65.58
2022-08-18T07:48:35.000Z,64.89
2022-08-18T07:49:35.000Z,65.39
2022-08-18T07:50:35.000Z,65.09
2022-08-18T07:51:35.000Z,66.28
2022-08-18T07:52:35.000Z,65.98
2022-08-18T07:53:35.000Z,65.28
2022-08-18T07:54:35.000Z,65.28
2022-08-18T07:55:35.000Z,66.08
2022-08-18T07:56:35.000Z,66.08
2022-08-18T07:57:35.000Z,65.88
2022-08-18T07:58:35.000Z,64.59
2022-08-18T07:59:35.000Z,64.98
2022-08-18T08:00:35.000Z,64.69
2022-08-18T08:01:35.000Z,65.88
2022-08-18T08:01:35.000Z,65.88
2022-08-18T08:02:35.000Z,66.08
2022-08-18T08:02:35.000Z,66.08
2022-08-18T08:03:35.000Z,66.35
2022-08-18T08:03:35.000Z,66.35
2022-08-18T08:04:35.000Z,66.64
2022-08-18T08:04:35.000Z,66.64
2022-08-18T08:05:35.000Z,65.45
2022-08-18T08:05:35.000Z,65.45
2022-08-18T08:06:35.000Z,65.65
2022-08-18T08:07:35.000Z,64.86
2022-08-18T08:08:35.000Z,65.45
2022-08-18T08:09:35.000Z,65.72
2022-08-18T08:10:35.000Z,64.53
2022-08-18T08:11:35.000Z,64.43
2022-08-18T08:12:35.000Z,65.12
2022-08-18T08:13:35.000Z,64.53
2022-08-18T08:14:35.000Z,65.02
2022-08-18T08:15:35.000Z,64.83
2022-08-18T08:16:35.000Z,64.30
2022-08-18T08:16:35.000Z,64.30
2022-08-18T08:17:35.000Z,64.79
2022-08-18T08:17:35.000Z,64.79
2022-08-18T08:18:35.000Z,64.40
2022-08-18T08:18:35.000Z,64.40
2022-08-18T08:19:35.000Z,64.10
2022-08-18T08:19:35.000Z,64.10
2022-08-18T08:20:35.000Z,63.60
2022-08-18T08:20:35.000Z,63.60
2022-08-18T08:21:35.000Z,64.10
2022-08-18T08:22:35.000Z,64.00
2022-08-18T08:23:35.000Z,63.48
2022-08-18T08:24:35.000Z,62.12
2022-08-18T08:25:35.000Z,62.02
2022-08-18T08:26:35.000Z,62.68
2022-08-18T08:27:35.000Z,62.38
2022-08-18T08:28:35.000Z,61.69
2022-08-18T08:29:35.000Z,62.88
2022-08-18T08:30:35.000Z,63.37
2022-08-18T08:31:35.000Z,63.18
2022-08-18T08:32:35.000Z,62.98
2022-08-18T08:33:35.000Z,62.45
2022-08-18T08:34:35.000Z,61.07
2022-08-18T08:35:35.000Z,62.05
2022-08-18T08:36:34.000Z,62.45
2022-08-18T08:37:34.000Z,61.16
2022-08-18T08:38:34.000Z,60.96
2022-08-18T08:39:34.000Z,61.66
2022-08-18T08:40:34.000Z,61.76
2022-08-18T08:41:34.000Z,61.07
2022-08-18T08:42:34.000Z,60.86
2022-08-18T08:43:34.000Z,61.26
2022-08-18T08:44:34.000Z,61.76
2022-08-18T08:45:34.000Z,62.45
2022-08-18T08:46:34.000Z,61.46
2022-08-18T08:47:34.000Z,61.56
2022-08-18T08:48:34.000Z,61.16
2022-08-18T08:49:34.000Z,61.73
2022-08-18T08:50:34.000Z,61.13
2022-08-18T08:51:34.000Z,62.02
2022-08-18T08:52:34.000Z,61.04
2022-08-18T08:53:34.000Z,61.04
2022-08-18T08:54:34.000Z,61.43
2022-08-18T08:55:34.000Z,61.04
2022-08-18T08:56:34.000Z,61.60
2022-08-18T08:57:34.000Z,61.00
2022-08-18T08:58:34.000Z,60.61
2022-08-18T08:59:34.000Z,59.92
2022-08-18T09:00:34.000Z,59.72
2022-08-18T09:01:34.000Z,60.11
2022-08-18T09:02:34.000Z,59.72
2022-08-18T09:03:34.000Z,60.11
2022-08-18T09:04:34.000Z,59.72
2022-08-18T09:05:34.000Z,60.02
2022-08-18T09:06:34.000Z,59.52
2022-08-18T09:07:34.000Z,60.02
2022-08-18T09:08:34.000Z,60.71
2022-08-18T09:09:34.000Z,59.92
2022-08-18T09:10:34.000Z,60.21
2022-08-18T09:11:34.000Z,59.72
2022-08-18T09:12:34.000Z,60.11
2022-08-18T09:13:34.000Z,59.72
2022-08-18T09:14:34.000Z,59.72
2022-08-18T09:15:34.000Z,60.11
2022-08-18T09:16:34.000Z,60.41
2022-08-18T09:17:34.000Z,59.12
2022-08-18T09:18:34.000Z,60.71
2022-08-18T09:19:34.000Z,60.71
2022-08-18T09:20:34.000Z,60.48
2022-08-18T09:21:34.000Z,59.30
2022-08-18T09:22:34.000Z,59.36
2022-08-18T09:23:34.000Z,59.53
2022-08-18T09:24:34.000Z,60.03
2022-08-18T09:25:34.000Z,58.72
2022-08-18T09:26:34.000Z,58.39
2022-08-18T09:27:34.000Z,57.20
2022-08-18T09:28:34.000Z,57.07
2022-08-18T09:29:34.000Z,56.98
2022-08-18T09:30:34.000Z,55.77
2022-08-18T09:31:34.000Z,55.77
2022-08-18T09:32:34.000Z,55.35
2022-08-18T09:33:34.000Z,54.93
2022-08-18T09:34:34.000Z,53.74
2022-08-18T09:35:34.000Z,54.23
2022-08-18T09:36:34.000Z,54.23
2022-08-18T09:37:34.000Z,54.03
2022-08-18T09:38:34.000Z,54.21
2022-08-18T09:39:34.000Z,53.71
2022-08-18T09:40:34.000Z,54.50
2022-08-18T09:41:34.000Z,53.91
2022-08-18T09:42:34.000Z,54.11
2022-08-18T09:43:34.000Z,53.69
2022-08-18T09:44:34.000Z,53.19
2022-08-18T09:45:34.000Z,52.01
2022-08-18T09:46:34.000Z,53.00
2022-08-18T09:47:34.000Z,53.49
2022-08-18T09:48:34.000Z,53.30
2022-08-18T09:49:34.000Z,53.07
2022-08-18T09:50:34.000Z,54.25
2022-08-18T09:51:34.000Z,53.76
2022-08-18T09:51:34.000Z,53.76
2022-08-18T09:52:34.000Z,54.16
2022-08-18T09:52:34.000Z,54.16
2022-08-18T09:53:34.000Z,53.96
2022-08-18T09:53:34.000Z,53.96
2022-08-18T09:54:34.000Z,53.96
2022-08-18T09:54:34.000Z,53.96
2022-08-18T09:55:34.000Z,53.36
2022-08-18T09:55:34.000Z,53.36
2022-08-18T09:56:34.000Z,51.69
2022-08-18T09:56:34.000Z,51.69
2022-08-18T09:57:34.000Z,51.79
2022-08-18T09:57:34.000Z,51.79
2022-08-18T09:58:34.000Z,52.65
2022-08-18T09:58:34.000Z,52.65
2022-08-18T09:59:34.000Z,52.55
2022-08-18T09:59:34.000Z,52.55
2022-08-18T10:00:34.000Z,53.05
2022-08-18T10:00:34.000Z,53.05
2022-08-18T10:01:34.000Z,52.06
2022-08-18T10:02:34.000Z,52.38
2022-08-18T10:03:34.000Z,52.68
2022-08-18T10:04:34.000Z,51.69
2022-08-18T10:05:34.000Z,51.99
2022-08-18T10:06:34.000Z,52.87
2022-08-18T10:07:34.000Z,51.69
2022-08-18T10:08:34.000Z,52.09
2022-08-18T10:09:34.000Z,52.80
2022-08-18T10:10:34.000Z,53.00
2022-08-18T10:11:33.000Z,53.19
2022-08-18T10:11:33.000Z,53.19
2022-08-18T10:12:33.000Z,51.92
2022-08-18T10:12:33.000Z,51.92
2022-08-18T10:13:33.000Z,51.74
2022-08-18T10:13:33.000Z,51.74
2022-08-18T10:14:33.000Z,53.12
2022-08-18T10:14:33.000Z,53.12
2022-08-18T10:15:33.000Z,52.43
2022-08-18T10:15:33.000Z,52.43
2022-08-18T10:16:33.000Z,52.83
2022-08-18T10:17:33.000Z,52.16
2022-08-18T10:18:33.000Z,53.34
2022-08-18T10:19:33.000Z,52.75
2022-08-18T10:20:33.000Z,52.66
2022-08-18T10:27:51.000Z,54.16
2022-08-18T10:27:51.000Z,54.68
2022-08-18T10:28:51.000Z,53.57
2022-08-18T10:29:51.000Z,54.48
2022-08-18T10:30:51.000Z,52.87
2022-08-18T10:31:51.000Z,53.17
2022-08-18T10:32:51.000Z,53.77
2022-08-18T10:33:51.000Z,53.86
2022-08-18T10:34:51.000Z,54.46
2022-08-18T10:35:51.000Z,53.17
2022-08-18T10:36:51.000Z,53.74
2022-08-18T10:37:51.000Z,52.06
2022-08-18T10:38:51.000Z,52.26
2022-08-18T10:39:51.000Z,52.85
2022-08-18T10:40:51.000Z,53.94
2022-08-18T10:41:50.000Z,53.15
2022-08-18T10:42:50.000Z,52.66
2022-08-18T10:43:50.000Z,52.95
2022-08-18T10:44:50.000Z,52.75
2022-08-18T10:45:50.000Z,52.46
2022-08-18T10:46:50.000Z,52.06
2022-08-18T10:47:50.000Z,51.97
2022-08-18T10:48:50.000Z,51.47
2022-08-18T10:49:50.000Z,52.85
2022-08-18T10:50:50.000Z,52.46
2022-08-18T10:51:50.000Z,52.98
2022-08-18T10:52:50.000Z,53.47
2022-08-18T10:53:50.000Z,52.09
2022-08-18T10:54:50.000Z,52.51
2022-08-18T10:55:50.000Z,52.11
2022-08-18T10:56:50.000Z,52.31
2022-08-18T10:57:50.000Z,52.73
2022-08-18T10:58:50.000Z,52.44
2022-08-18T10:59:50.000Z,52.76
2022-08-18T11:00:50.000Z,53.55
2022-08-18T11:01:50.000Z,54.17
2022-08-18T11:02:50.000Z,54.27
2022-08-18T11:03:50.000Z,54.49
2022-08-18T11:04:50.000Z,54.29
2022-08-18T11:05:50.000Z,54.81
2022-08-18T11:06:50.000Z,54.81
2022-08-18T11:07:50.000Z,54.52
2022-08-18T11:08:50.000Z,55.01
2022-08-18T11:09:50.000Z,55.24
2022-08-18T11:10:50.000Z,55.83
2022-08-18T11:11:50.000Z,54.94
2022-08-18T11:12:50.000Z,55.06
2022-08-18T11:13:50.000Z,55.66
2022-08-18T11:14:50.000Z,56.45
2022-08-18T11:15:50.000Z,56.45
2022-08-18T11:16:50.000Z,56.85
2022-08-18T11:17:50.000Z,58.53
2022-08-18T11:18:50.000Z,58.03
2022-08-18T11:19:50.000Z,56.35
2022-08-18T11:20:50.000Z,56.65
2022-08-18T11:21:50.000Z,56.55
2022-08-18T11:22:50.000Z,56.18
2022-08-18T11:23:50.000Z,56.97
2022-08-18T11:24:50.000Z,56.87
2022-08-18T11:25:50.000Z,57.27
2022-08-18T11:26:50.000Z,57.67
2022-08-18T11:27:50.000Z,58.09
2022-08-18T11:28:50.000Z,57.79
2022-08-18T11:29:50.000Z,58.09
2022-08-18T11:30:50.000Z,58.39
2022-08-18T11:31:50.000Z,58.39
2022-08-18T11:32:50.000Z,58.88
2022-08-18T11:33:50.000Z,58.19
2022-08-18T11:34:50.000Z,58.39
2022-08-18T11:35:50.000Z,58.19
2022-08-18T11:36:50.000Z,57.69
2022-08-18T11:37:50.000Z,57.69
2022-08-18T11:38:50.000Z,58.09
2022-08-18T11:39:50.000Z,58.29
2022-08-18T11:40:50.000Z,58.09
2022-08-18T11:41:50.000Z,58.12
2022-08-18T11:42:50.000Z,58.72
2022-08-18T11:43:50.000Z,58.19
2022-08-18T11:44:50.000Z,57.82
2022-08-18T11:45:50.000Z,58.02
2022-08-18T11:46:50.000Z,58.22
2022-08-18T11:46:50.000Z,58.22
2022-08-18T11:46:50.000Z,58.22
2022-08-18T11:47:50.000Z,57.82
2022-08-18T11:47:50.000Z,57.82
2022-08-18T11:47:50.000Z,57.82
2022-08-18T11:48:50.000Z,58.22
2022-08-18T11:48:50.000Z,58.22
2022-08-18T11:48:50.000Z,58.22
2022-08-18T11:49:50.000Z,58.12
2022-08-18T11:49:50.000Z,58.12
2022-08-18T11:49:50.000Z,58.12
2022-08-18T11:50:50.000Z,58.12
2022-08-18T11:50:50.000Z,58.12
2022-08-18T11:50:50.000Z,58.12
2022-08-18T11:51:50.000Z,58.12
2022-08-18T11:51:50.000Z,58.12
2022-08-18T11:52:50.000Z,58.78
2022-08-18T11:52:50.000Z,58.78
2022-08-18T11:53:50.000Z,58.32
2022-08-18T11:53:50.000Z,58.32
2022-08-18T11:54:50.000Z,58.29
2022-08-18T11:54:50.000Z,58.29
2022-08-18T11:55:50.000Z,58.29
2022-08-18T11:55:50.000Z,58.29
2022-08-18T11:56:50.000Z,58.39
2022-08-18T11:57:50.000Z,58.78
2022-08-18T11:58:50.000Z,58.59
2022-08-18T11:59:50.000Z,57.69
2022-08-18T12:00:50.000Z,57.79
2022-08-18T12:01:50.000Z,57.79
2022-08-18T12:02:50.000Z,57.69
2022-08-18T12:03:50.000Z,57.99
2022-08-18T12:04:50.000Z,57.20
2022-08-18T12:05:50.000Z,58.09
2022-08-18T12:06:50.000Z,57.79
2022-08-18T12:07:50.000Z,57.89
2022-08-18T12:08:50.000Z,58.09
2022-08-18T12:09:50.000Z,58.06
2022-08-18T12:10:50.000Z,58.56
2022-08-18T12:11:50.000Z,58.36
2022-08-18T12:12:50.000Z,57.57
2022-08-18T12:13:50.000Z,57.67
2022-08-18T12:14:50.000Z,57.46
2022-08-18T12:15:50.000Z,57.67
2022-08-18T12:16:50.000Z,57.76
2022-08-18T12:17:50.000Z,57.14
2022-08-18T12:18:49.000Z,58.13
2022-08-18T12:19:49.000Z,56.85
2022-08-18T12:20:49.000Z,57.44
2022-08-18T12:21:49.000Z,57.74
2022-08-18T12:22:49.000Z,57.61
2022-08-18T12:23:49.000Z,58.80